WFDK1: Walnut River, Winfield, KS

Data processed at Thu May 17 2018 23:05


All information presented herein is the property of the government of the United States of America and may be revised or deleted at any time without prior notice.
Dissemination of this information without the expressed written consent of the Public Affairs Office, Tulsa District U.S. Army Corps of Engineers is strictly prohibited.
These data are gathered electronically and, as presented, have not undergone any form of quality control. These data are not guaranteed to be valid or correct.
Go to home page.
Go to station list.

Upstream stations:

Downstream station:
Previous Day
Next Day
Current Day
    
SHEF ID:       WFDK1     WALNUT R AT WINFIELD, KS
STATION TYPE:  

               PRECIP     STAGE  RIV-FLOW  BAT-LOAD
                   in        ft       cfs      volt
              Ccp-Rev   Ccp-Rev   Ccp-Rev   Ccp-Rev
(US/Central)
05/15 00:00      0.02      1.57       203     12.41
05/15 01:00      0.02      1.65       230     12.41
05/15 02:00      0.02      1.77       275     12.41
05/15 03:00      0.02      2.00       381     12.41
05/15 04:00      0.02      2.25       515     12.41
05/15 05:00      0.01      2.45       615     12.41
05/15 06:00      0.02      2.72       744     12.41
05/15 07:00      0.01      3.55      1175     11.30
05/15 08:00      0.02      4.50      1895     12.09
05/15 09:00      0.01      5.57      2802     11.46
05/15 10:00      0.01      6.67      3824     11.53
05/15 11:00      0.02      7.30      4445     12.41
05/15 12:00      0.01      7.50      4647     12.65
05/15 13:00      0.02      7.47      4617     12.89
05/15 14:00      0.01      7.26      4405     12.81
05/15 15:00      0.01      6.97      4117     13.21
05/15 16:00      0.01      6.69      3843     13.29
05/15 17:00      0.02      6.43      3594     13.44
05/15 18:00      0.00      6.18      3358     13.44
05/15 19:00      0.01      5.92      3118     12.97
05/15 20:00      0.01      5.71      2927     12.65
05/15 21:00      0.00      5.53      2766     12.57
05/15 22:00      0.00      5.34      2599     12.57
05/15 23:00      0.01      5.24      2512     12.49